Chan Gurney Municipal Airport Yankton US
ICAO: KYKN
IATA: YKN
Category: Medium
Scheduled Services: No

Elevation: 1306 ft
TransAlt. 18000 ft.

Airport Communications:
AWOS 3:111.4
MINNEAPOLIS CNTR:124.1
HURON RDO:111.4
CTAF/UNICOM:122.8

KYKN Zoom In..

If you have problems with the map follow the link
https://www.worldairports.se/pages/airport.php?
ICAO=KYKN

Runways:

(A) RW 01 length 3380 ft width 75 ft
---- / hdg 14

(B) RW 13 length 6095 ft width 100 ft
---- / hdg 133

(C) RW 19 length 3380 ft width 75 ft
---- / hdg 194

(D) RW 31 length 6095 ft width 100 ft
ILS 109.50 / hdg 313

Location; KYKN
Day. 17 / Time. 21.56 Zulu
* Altimeter: 29.85
* Temperature: -02° c. -28.4°f.
* Wind from: 140° Speed 19 kn.
Dewpoint: -03° c.
Visibility: 10 Statute Miles.
Clouds: Overcast 700 ft.

KYKN 172156Z AUTO 14019KT 10SM OVC007 M02/M03 A2985 RMK AO2 SNE04 SLP139 P0000 T10221033 FZRANO


Wind From 140°
Speed 19 kn.

 
 
jpsmedia worldairports.se 2020   terms of use